createdAt,value
2018-02-14T00:02:04.188Z,22.52
2018-02-14T00:04:31.764Z,22.23
2018-02-14T00:06:59.302Z,21.20
2018-02-14T00:09:26.924Z,21.20
2018-02-14T00:11:54.479Z,21.40
2018-02-14T00:14:22.022Z,21.10
2018-02-14T00:16:50.486Z,22.83
2018-02-14T00:19:18.896Z,21.40
2018-02-14T00:21:46.443Z,19.73
2018-02-14T00:24:16.406Z,20.80
2018-02-14T00:26:43.955Z,20.60
2018-02-14T00:29:11.504Z,20.07
2018-02-14T00:31:39.088Z,20.70
2018-02-14T00:34:06.636Z,19.97
2018-02-14T00:36:34.183Z,22.17
2018-02-14T00:39:02.483Z,21.57
2018-02-14T00:41:30.095Z,22.45
2018-02-14T00:43:57.639Z,23.20
2018-02-14T00:46:25.222Z,22.40
2018-02-14T00:48:52.853Z,22.87
2018-02-14T00:51:21.202Z,23.12
2018-02-14T00:56:43.073Z,22.33
2018-02-14T00:59:10.612Z,24.70
2018-02-14T01:01:38.219Z,23.30
2018-02-14T01:04:05.790Z,21.47
2018-02-14T01:06:33.340Z,21.70
2018-02-14T01:09:00.883Z,20.93
2018-02-14T01:11:28.447Z,22.67
2018-02-14T01:13:55.987Z,24.20
2018-02-14T01:16:23.575Z,22.55
2018-02-14T01:18:51.754Z,23.07
2018-02-14T01:21:19.295Z,24.20
2018-02-14T01:23:46.838Z,22.33
2018-02-14T01:26:16.270Z,22.08
2018-02-14T01:28:43.816Z,22.23
2018-02-14T01:31:11.359Z,23.80
2018-02-14T01:33:38.941Z,21.43
2018-02-14T01:36:06.478Z,23.33
2018-02-14T01:38:34.018Z,23.63
2018-02-14T01:41:02.969Z,24.80
2018-02-14T01:43:30.512Z,22.63
2018-02-14T01:45:58.046Z,22.43
2018-02-14T01:48:25.626Z,21.90
2018-02-14T01:50:53.175Z,24.40
2018-02-14T01:53:20.723Z,23.80
2018-02-14T01:55:48.301Z,24.17
2018-02-14T01:58:16.807Z,23.00
2018-02-14T02:00:44.358Z,22.77
2018-02-14T02:03:12.116Z,23.07
2018-02-14T02:05:39.662Z,23.70
2018-02-14T02:10:40.951Z,24.27
2018-02-14T02:13:08.464Z,23.15
2018-02-14T02:15:35.987Z,24.03
2018-02-14T02:18:03.604Z,23.55
2018-02-14T02:20:34.618Z,24.90
2018-02-14T02:23:02.159Z,22.53
2018-02-14T02:25:30.106Z,22.42
2018-02-14T02:27:57.651Z,24.20
2018-02-14T02:30:25.195Z,22.80
2018-02-14T02:32:52.783Z,22.53
2018-02-14T02:35:20.327Z,22.95
2018-02-14T02:37:47.873Z,22.20
2018-02-14T02:40:28.174Z,23.20
2018-02-14T02:42:55.714Z,23.80
2018-02-14T02:45:23.302Z,23.27
2018-02-14T02:47:51.251Z,22.97
2018-02-14T02:50:18.834Z,23.30
2018-02-14T02:52:46.380Z,25.30
2018-02-14T02:55:25.526Z,22.58
2018-02-14T03:02:26.623Z,25.27
2018-02-14T03:04:54.154Z,25.20
2018-02-14T03:07:21.699Z,24.07
2018-02-14T03:09:49.578Z,21.40
2018-02-14T03:12:17.111Z,21.90
2018-02-14T03:14:44.647Z,24.00
2018-02-14T03:17:12.207Z,23.70
2018-02-14T03:19:39.747Z,22.20
2018-02-14T03:22:07.622Z,22.53
2018-02-14T03:24:35.199Z,21.77
2018-02-14T03:27:02.738Z,20.93
2018-02-14T03:29:31.046Z,23.97
2018-02-14T03:31:59.082Z,22.60
2018-02-14T03:34:27.378Z,22.57
2018-02-14T03:36:54.940Z,22.73
2018-02-14T03:39:22.555Z,22.37
2018-02-14T03:41:50.095Z,23.13
2018-02-14T03:44:17.723Z,22.70
2018-02-14T03:46:45.303Z,23.60
2018-02-14T03:49:23.546Z,23.55
2018-02-14T03:57:11.435Z,20.17
2018-02-14T04:02:02.263Z,21.50
2018-02-14T04:04:29.839Z,22.52
2018-02-14T04:06:57.463Z,22.57
2018-02-14T04:09:25.000Z,23.62
2018-02-14T04:11:52.561Z,23.60
2018-02-14T04:14:20.099Z,22.92
2018-02-14T04:16:47.634Z,22.50
2018-02-14T04:19:17.743Z,22.70
2018-02-14T04:21:45.352Z,22.87
2018-02-14T04:24:23.970Z,22.75
2018-02-14T04:29:33.978Z,22.00
2018-02-14T04:32:01.581Z,22.75
2018-02-14T04:34:29.122Z,22.13
2018-02-14T04:36:57.947Z,25.03
2018-02-14T04:39:25.486Z,24.08
2018-02-14T04:41:53.022Z,23.03
2018-02-14T04:44:21.385Z,25.90
2018-02-14T04:46:48.979Z,22.87
2018-02-14T04:49:16.591Z,25.90
2018-02-14T04:51:44.159Z,27.53
2018-02-14T04:54:11.696Z,23.87
2018-02-14T04:56:39.236Z,24.03
2018-02-14T04:59:06.856Z,23.83
2018-02-14T05:01:35.161Z,24.97
2018-02-14T05:04:02.719Z,23.80
2018-02-14T05:06:30.307Z,23.92
2018-02-14T05:08:57.953Z,22.73
2018-02-14T05:11:25.542Z,22.27
2018-02-14T05:13:53.110Z,22.23
2018-02-14T05:16:20.723Z,25.30
2018-02-14T05:18:48.303Z,23.50
2018-02-14T05:21:17.335Z,25.95
2018-02-14T05:23:44.870Z,24.70
2018-02-14T05:26:13.004Z,26.33
2018-02-14T05:28:40.582Z,27.75
2018-02-14T05:31:08.128Z,28.47
2018-02-14T05:33:35.683Z,26.40
2018-02-14T05:36:03.251Z,26.77
2018-02-14T05:38:30.831Z,26.30
2018-02-14T05:40:58.362Z,25.70
2018-02-14T05:43:26.594Z,24.20
2018-02-14T05:45:54.126Z,23.83
2018-02-14T05:48:21.682Z,23.70
2018-02-14T05:50:49.292Z,25.10
2018-02-14T05:53:16.864Z,25.50
2018-02-14T05:55:44.398Z,24.40
2018-02-14T05:58:11.970Z,26.50
2018-02-14T06:03:33.855Z,26.00
2018-02-14T06:06:01.407Z,25.62
2018-02-14T06:08:29.020Z,24.25
2018-02-14T06:10:56.828Z,25.73
2018-02-14T06:13:24.366Z,25.97
2018-02-14T06:15:51.950Z,26.40
2018-02-14T06:18:19.531Z,26.15
2018-02-14T06:20:47.070Z,26.50
2018-02-14T06:23:16.476Z,23.90
2018-02-14T06:25:44.450Z,26.50
2018-02-14T06:28:12.254Z,25.67
2018-02-14T06:30:39.799Z,25.33
2018-02-14T06:33:07.363Z,27.20
2018-02-14T06:35:34.896Z,25.57
2018-02-14T06:38:02.436Z,24.80
2018-02-14T06:40:30.016Z,23.97
2018-02-14T06:42:57.559Z,24.97
2018-02-14T06:45:25.094Z,25.80
2018-02-14T06:47:53.111Z,25.27
2018-02-14T06:50:20.655Z,25.27
2018-02-14T06:52:48.191Z,24.07
2018-02-14T06:55:16.607Z,25.67
2018-02-14T06:57:44.150Z,24.40
2018-02-14T07:00:12.487Z,26.33
2018-02-14T07:02:40.103Z,23.67
2018-02-14T07:05:07.683Z,24.90
2018-02-14T07:07:35.223Z,24.77
2018-02-14T07:10:03.308Z,22.47
2018-02-14T07:12:30.860Z,24.50
2018-02-14T07:14:58.395Z,25.70
2018-02-14T07:17:26.042Z,25.20
2018-02-14T07:19:54.331Z,23.27
2018-02-14T07:22:21.879Z,23.02
2018-02-14T07:24:49.438Z,23.98
2018-02-14T07:27:16.975Z,23.10
2018-02-14T07:29:45.663Z,25.50
2018-02-14T07:32:25.486Z,25.60
2018-02-14T07:38:52.675Z,24.30
2018-02-14T07:41:20.211Z,23.50
2018-02-14T07:43:47.745Z,24.50
2018-02-14T07:46:17.275Z,24.65
2018-02-14T07:48:44.815Z,22.40
2018-02-14T07:51:12.350Z,24.10
2018-02-14T07:53:40.226Z,23.57
2018-02-14T07:56:07.853Z,23.83
2018-02-14T07:58:35.399Z,23.90
2018-02-14T08:01:02.971Z,23.30
2018-02-14T08:03:31.274Z,26.08
2018-02-14T08:05:59.574Z,26.10
2018-02-14T08:08:27.150Z,23.47
2018-02-14T08:10:54.694Z,24.17
2018-02-14T08:13:23.003Z,29.70
2018-02-14T08:15:51.145Z,25.58
2018-02-14T08:21:14.766Z,19.10
2018-02-14T08:23:42.353Z,22.60
2018-02-14T08:26:09.919Z,20.83
2018-02-14T08:28:37.524Z,21.00
2018-02-14T08:31:05.463Z,21.20
2018-02-14T08:33:33.002Z,21.87
2018-02-14T08:36:01.842Z,21.25
2018-02-14T08:38:29.718Z,21.48
2018-02-14T08:40:57.255Z,21.53
2018-02-14T08:43:25.152Z,23.37
2018-02-14T08:45:53.560Z,25.97
2018-02-14T08:48:21.136Z,23.27
2018-02-14T08:50:49.499Z,23.53
2018-02-14T08:53:17.035Z,21.17
2018-02-14T08:55:44.603Z,22.50
2018-02-14T08:58:12.761Z,21.53
2018-02-14T09:00:40.303Z,21.77
2018-02-14T09:03:07.843Z,20.23
2018-02-14T09:05:35.411Z,21.10
2018-02-14T09:08:03.018Z,20.83
2018-02-14T09:10:30.596Z,18.67
2018-02-14T09:12:58.171Z,19.47
2018-02-14T09:15:26.481Z,19.10
2018-02-14T09:17:54.033Z,21.43
2018-02-14T09:20:21.961Z,19.40
2018-02-14T09:22:49.499Z,22.50
2018-02-14T09:25:17.047Z,20.50
2018-02-14T09:27:44.711Z,19.30
2018-02-14T09:30:12.250Z,19.80
2018-02-14T09:32:40.204Z,20.57
2018-02-14T09:35:07.790Z,20.00
2018-02-14T09:37:35.422Z,21.20
2018-02-14T09:40:02.958Z,19.10
2018-02-14T09:42:31.919Z,17.40
2018-02-14T09:44:59.471Z,17.83
2018-02-14T09:47:27.015Z,17.60
2018-02-14T09:49:54.594Z,17.10
2018-02-14T09:52:22.130Z,15.37
2018-02-14T09:54:49.670Z,15.00
2018-02-14T09:57:17.254Z,15.47
2018-02-14T09:59:44.794Z,14.40
2018-02-14T10:02:12.338Z,14.20
2018-02-14T10:04:39.975Z,13.53
2018-02-14T10:07:07.526Z,14.77
2018-02-14T10:09:35.830Z,14.47
2018-02-14T10:12:04.179Z,13.68
2018-02-14T10:14:31.714Z,13.38
2018-02-14T10:16:59.250Z,13.23
2018-02-14T10:19:26.821Z,14.80
2018-02-14T10:21:54.372Z,17.27
2018-02-14T10:24:21.916Z,13.80
2018-02-14T10:26:50.179Z,15.27
2018-02-14T10:29:18.498Z,14.67
2018-02-14T10:31:46.044Z,14.33
2018-02-14T10:34:14.835Z,18.10
2018-02-14T10:36:42.391Z,15.48
2018-02-14T10:39:09.922Z,17.60
2018-02-14T10:41:37.499Z,16.40
2018-02-14T10:44:05.035Z,16.63
2018-02-14T10:46:32.574Z,18.87
2018-02-14T10:49:00.355Z,16.10
2018-02-14T10:51:27.894Z,17.10
2018-02-14T10:53:55.433Z,16.25
2018-02-14T10:56:23.019Z,15.20
2018-02-14T10:58:50.575Z,17.65
2018-02-14T11:01:24.472Z,16.40
2018-02-14T11:03:52.016Z,17.20
2018-02-14T11:06:19.555Z,16.35
2018-02-14T11:08:47.739Z,16.77
2018-02-14T11:11:16.446Z,17.35
2018-02-14T11:13:43.994Z,16.60
2018-02-14T11:16:11.635Z,16.60
2018-02-14T11:18:39.167Z,18.07
2018-02-14T11:21:06.707Z,16.70
2018-02-14T11:23:35.048Z,17.27
2018-02-14T11:26:02.600Z,19.30
2018-02-14T11:28:30.135Z,20.60
2018-02-14T11:30:58.124Z,18.77
2018-02-14T11:33:25.675Z,18.33
2018-02-14T11:35:53.618Z,17.33
2018-02-14T11:38:21.183Z,18.03
2018-02-14T11:40:48.727Z,19.80
2018-02-14T11:43:17.227Z,16.92
2018-02-14T11:45:44.831Z,17.43
2018-02-14T11:48:12.368Z,15.93
2018-02-14T11:50:39.916Z,17.67
2018-02-14T11:53:07.522Z,18.17
2018-02-14T11:55:35.073Z,18.67
2018-02-14T11:58:02.783Z,18.33
2018-02-14T12:00:30.346Z,19.48
2018-02-14T12:02:57.895Z,19.67
2018-02-14T12:05:25.481Z,18.33
2018-02-14T12:07:53.054Z,19.73
2018-02-14T12:10:20.648Z,19.40
2018-02-14T12:12:48.438Z,18.43
2018-02-14T12:15:17.691Z,20.27
2018-02-14T12:17:45.230Z,20.03
2018-02-14T12:20:13.692Z,20.97
2018-02-14T12:22:41.269Z,18.80
2018-02-14T12:25:08.815Z,19.40
2018-02-14T12:27:36.358Z,21.10
2018-02-14T12:30:03.948Z,20.20
2018-02-14T12:32:31.490Z,21.47
2018-02-14T12:34:59.037Z,20.80
2018-02-14T12:37:27.587Z,19.60
2018-02-14T12:39:55.131Z,19.10
2018-02-14T12:42:22.669Z,19.67
2018-02-14T12:44:50.247Z,18.60
2018-02-14T12:47:17.783Z,20.70
2018-02-14T12:49:45.322Z,20.02
2018-02-14T12:52:24.351Z,19.35
2018-02-14T13:03:12.515Z,19.55
2018-02-14T13:05:40.109Z,21.13
2018-02-14T13:08:07.654Z,20.63
2018-02-14T13:10:35.284Z,20.80
2018-02-14T13:13:02.823Z,22.00
2018-02-14T13:15:30.403Z,23.57
2018-02-14T13:17:57.964Z,24.43
2018-02-14T13:20:25.518Z,23.90
2018-02-14T13:22:53.063Z,20.63
2018-02-14T13:25:20.947Z,22.20
2018-02-14T13:27:48.492Z,23.85
2018-02-14T13:30:16.453Z,22.40
2018-02-14T13:32:44.034Z,24.77
2018-02-14T13:35:11.655Z,24.40
2018-02-14T13:37:40.191Z,23.70
2018-02-14T13:40:07.776Z,24.77
2018-02-14T13:42:35.319Z,25.77
2018-02-14T13:45:02.891Z,24.57
2018-02-14T13:47:30.857Z,26.17
2018-02-14T13:49:58.399Z,26.12
2018-02-14T13:52:25.934Z,27.23
2018-02-14T13:54:53.515Z,27.90
2018-02-14T13:57:21.055Z,29.98
2018-02-14T13:59:48.599Z,30.33
2018-02-14T14:02:16.463Z,27.35
2018-02-14T14:04:44.045Z,28.73
2018-02-14T14:07:11.562Z,29.80
2018-02-14T14:09:40.003Z,30.60
2018-02-14T14:12:07.550Z,30.23
2018-02-14T14:14:35.095Z,31.37
2018-02-14T14:17:02.662Z,33.37
2018-02-14T14:19:30.207Z,33.07
2018-02-14T14:21:57.744Z,31.53
2018-02-14T14:24:26.200Z,31.20
2018-02-14T14:26:53.743Z,30.37
2018-02-14T14:29:21.284Z,31.60
2018-02-14T14:31:49.738Z,31.20
2018-02-14T14:34:17.282Z,29.87
2018-02-14T14:36:44.821Z,31.50
2018-02-14T14:39:12.859Z,30.73
2018-02-14T14:41:40.409Z,29.10
2018-02-14T14:44:07.973Z,31.10
2018-02-14T14:46:35.569Z,31.00
2018-02-14T14:49:03.112Z,30.83
2018-02-14T14:51:30.650Z,31.20
2018-02-14T14:53:58.843Z,31.27
2018-02-14T14:56:26.383Z,31.80
2018-02-14T14:58:53.941Z,31.40
2018-02-14T15:01:21.526Z,31.00
2018-02-14T15:03:49.066Z,31.80
2018-02-14T15:06:16.611Z,29.77
2018-02-14T15:08:44.171Z,31.17
2018-02-14T15:11:11.707Z,31.90
2018-02-14T15:13:40.125Z,31.90
2018-02-14T15:16:08.192Z,29.63
2018-02-14T15:18:35.731Z,31.10
2018-02-14T15:21:03.275Z,29.17
2018-02-14T15:23:30.907Z,31.67
2018-02-14T15:25:58.451Z,32.63
2018-02-14T15:28:25.999Z,33.27
2018-02-14T15:30:53.622Z,33.50
2018-02-14T15:33:21.143Z,30.30
2018-02-14T15:35:48.690Z,31.43
2018-02-14T15:38:17.079Z,32.27
2018-02-14T15:40:45.099Z,32.27
2018-02-14T15:43:14.327Z,30.57
2018-02-14T15:45:41.887Z,30.83
2018-02-14T15:48:09.431Z,32.95
2018-02-14T15:50:36.974Z,33.43
2018-02-14T15:53:05.310Z,34.70
2018-02-14T15:55:32.878Z,35.35
2018-02-14T15:58:00.419Z,33.80
2018-02-14T16:00:28.049Z,34.78
2018-02-14T16:02:55.593Z,32.47
2018-02-14T16:05:23.126Z,35.93
2018-02-14T16:07:50.709Z,35.23
2018-02-14T16:10:19.011Z,36.27
2018-02-14T16:12:46.547Z,35.50
2018-02-14T16:15:15.583Z,37.35
2018-02-14T16:17:43.123Z,36.50
2018-02-14T16:20:10.664Z,38.87
2018-02-14T16:22:39.620Z,35.93
2018-02-14T16:25:07.155Z,39.43
2018-02-14T16:27:34.695Z,36.83
2018-02-14T16:30:02.347Z,36.70
2018-02-14T16:32:29.887Z,40.07
2018-02-14T16:34:57.635Z,37.65
2018-02-14T16:37:25.199Z,38.33
2018-02-14T16:39:52.763Z,40.57
2018-02-14T16:42:21.379Z,40.78
2018-02-14T16:44:49.491Z,38.97
2018-02-14T16:47:17.035Z,41.77
2018-02-14T16:49:44.574Z,41.40
2018-02-14T16:52:12.150Z,42.07
2018-02-14T16:54:39.695Z,43.80
2018-02-14T16:57:07.230Z,42.93
2018-02-14T16:59:34.790Z,43.70
2018-02-14T17:02:02.332Z,45.90
2018-02-14T17:04:29.904Z,42.60
2018-02-14T17:06:58.059Z,42.20
2018-02-14T17:09:25.602Z,42.80
2018-02-14T17:11:53.146Z,46.10
2018-02-14T17:14:20.720Z,44.86
2018-02-14T17:16:48.267Z,44.00
2018-02-14T17:19:16.673Z,45.47
2018-02-14T17:21:44.267Z,42.93
2018-02-14T17:24:13.851Z,46.33
2018-02-14T17:26:41.403Z,44.97
2018-02-14T17:29:10.556Z,43.60
2018-02-14T17:31:38.118Z,43.92
2018-02-14T17:34:05.679Z,44.20
2018-02-14T17:36:33.255Z,42.97
2018-02-14T17:39:00.819Z,47.33
2018-02-14T17:41:29.196Z,48.23
2018-02-14T17:43:57.223Z,46.90
2018-02-14T17:46:27.444Z,46.90
2018-02-14T17:48:55.996Z,45.17
2018-02-14T17:51:25.087Z,45.35
2018-02-14T17:53:53.509Z,48.83
2018-02-14T17:56:21.081Z,58.58
2018-02-14T17:58:48.671Z,64.20
2018-02-14T18:01:16.493Z,61.47
2018-02-14T18:03:44.052Z,57.77
2018-02-14T18:06:12.191Z,51.37
2018-02-14T18:08:39.750Z,54.73
2018-02-14T18:11:07.328Z,54.80
2018-02-14T18:13:34.924Z,53.27
2018-02-14T18:16:02.482Z,57.20
2018-02-14T18:18:30.036Z,53.20
2018-02-14T18:20:57.616Z,52.43
2018-02-14T18:23:25.162Z,48.43
2018-02-14T18:25:52.734Z,46.37
2018-02-14T18:28:20.301Z,45.25
2018-02-14T18:30:47.840Z,46.07
2018-02-14T18:33:17.266Z,48.05
2018-02-14T18:35:45.179Z,47.17
2018-02-14T18:38:13.742Z,47.60
2018-02-14T18:40:41.283Z,49.60
2018-02-14T18:43:08.876Z,50.53
2018-02-14T18:45:37.020Z,51.63
2018-02-14T18:48:04.582Z,55.13
2018-02-14T18:50:32.189Z,69.30
2018-02-14T18:52:59.754Z,49.47
2018-02-14T18:55:28.086Z,49.53
2018-02-14T18:57:56.637Z,49.00
2018-02-14T19:00:24.217Z,46.07
2018-02-14T19:02:51.829Z,43.10
2018-02-14T19:05:19.486Z,48.33
2018-02-14T19:07:47.043Z,43.40
2018-02-14T19:10:15.560Z,44.33
2018-02-14T19:12:43.189Z,45.10
2018-02-14T19:15:10.747Z,45.40
2018-02-14T19:17:38.290Z,45.50
2018-02-14T19:20:05.921Z,43.00
2018-02-14T19:22:33.487Z,40.75
2018-02-14T19:25:01.027Z,39.70
2018-02-14T19:27:28.603Z,41.10
2018-02-14T19:29:56.146Z,40.40
2018-02-14T19:32:23.690Z,40.80
2018-02-14T19:34:52.075Z,56.03
2018-02-14T19:37:19.622Z,43.50
2018-02-14T19:39:47.154Z,46.63
2018-02-14T19:42:16.847Z,42.83
2018-02-14T19:44:44.395Z,44.27
2018-02-14T19:47:12.184Z,41.50
2018-02-14T19:49:39.790Z,41.80
2018-02-14T19:52:07.327Z,37.63
2018-02-14T19:54:35.635Z,37.93
2018-02-14T19:57:03.215Z,39.00
2018-02-14T19:59:30.762Z,38.63
2018-02-14T20:01:58.298Z,38.37
2018-02-14T20:04:26.687Z,40.27
2018-02-14T20:06:54.233Z,39.13
2018-02-14T20:09:22.547Z,41.47
2018-02-14T20:11:50.115Z,42.67
2018-02-14T20:14:17.661Z,45.00
2018-02-14T20:16:45.198Z,46.60
2018-02-14T20:19:12.758Z,46.00
2018-02-14T20:21:41.062Z,46.10
2018-02-14T20:24:09.371Z,47.00
2018-02-14T20:26:36.975Z,50.50
2018-02-14T20:29:05.284Z,45.45
2018-02-14T20:31:32.868Z,45.85
2018-02-14T20:34:00.424Z,45.55
2018-02-14T20:36:27.979Z,47.88
2018-02-14T20:38:55.622Z,55.47
2018-02-14T20:41:23.210Z,55.70
2018-02-14T20:43:50.754Z,56.30
2018-02-14T20:46:18.290Z,58.33
2018-02-14T20:48:46.515Z,71.37
2018-02-14T20:51:15.547Z,56.40
2018-02-14T20:53:43.099Z,54.90
2018-02-14T20:56:10.679Z,57.43
2018-02-14T20:58:38.230Z,52.63
2018-02-14T21:01:05.779Z,52.13
2018-02-14T21:03:33.352Z,52.07
2018-02-14T21:06:00.894Z,50.40
2018-02-14T21:08:29.218Z,49.90
2018-02-14T21:10:56.815Z,51.17
2018-02-14T21:13:24.363Z,49.60
2018-02-14T21:15:51.906Z,47.60
2018-02-14T21:18:19.475Z,48.75
2018-02-14T21:20:47.012Z,45.37
2018-02-14T21:23:27.725Z,43.03
2018-02-14T21:28:39.611Z,41.97
2018-02-14T21:31:07.194Z,43.63
2018-02-14T21:33:34.717Z,45.00
2018-02-14T21:36:02.324Z,47.17
2018-02-14T21:38:30.635Z,47.30
2018-02-14T21:40:58.174Z,45.43
2018-02-14T21:43:26.512Z,43.63
2018-02-14T21:45:54.047Z,48.37
2018-02-14T21:48:21.588Z,43.40
2018-02-14T21:50:49.194Z,39.93
2018-02-14T21:53:16.747Z,37.67
2018-02-14T21:55:44.307Z,34.90
2018-02-14T21:58:11.888Z,36.53
2018-02-14T22:00:39.435Z,36.13
2018-02-14T22:03:06.985Z,36.80
2018-02-14T22:05:34.554Z,36.45
2018-02-14T22:08:02.107Z,43.57
2018-02-14T22:10:29.975Z,41.40
2018-02-14T22:12:57.839Z,36.93
2018-02-14T22:15:25.376Z,35.97
2018-02-14T22:17:52.907Z,37.73
2018-02-14T22:20:21.266Z,37.56
2018-02-14T22:22:48.802Z,33.67
2018-02-14T22:25:17.267Z,36.97
2018-02-14T22:27:44.839Z,35.00
2018-02-14T22:30:12.380Z,36.17
2018-02-14T22:32:39.911Z,35.60
2018-02-14T22:35:08.396Z,36.38
2018-02-14T22:37:36.690Z,37.80
2018-02-14T22:40:04.227Z,36.17
2018-02-14T22:42:32.554Z,36.95
2018-02-14T22:45:00.095Z,36.70
2018-02-14T22:47:28.511Z,36.43
2018-02-14T22:49:56.119Z,36.17
2018-02-14T22:52:24.871Z,34.70
2018-02-14T22:54:52.413Z,37.20
2018-02-14T22:57:20.575Z,35.05
2018-02-14T22:59:49.075Z,32.60
2018-02-14T23:02:16.618Z,32.27
2018-02-14T23:04:45.067Z,33.40
2018-02-14T23:07:12.611Z,34.37
2018-02-14T23:09:40.167Z,33.90
2018-02-14T23:12:08.500Z,34.27
2018-02-14T23:14:36.039Z,34.67
2018-02-14T23:17:03.579Z,36.30
2018-02-14T23:19:31.356Z,37.60
2018-02-14T23:21:59.526Z,37.77
2018-02-14T23:24:27.059Z,39.08
2018-02-14T23:26:55.391Z,35.23
2018-02-14T23:29:22.936Z,34.37
2018-02-14T23:31:50.470Z,36.83
2018-02-14T23:34:18.057Z,34.93
2018-02-14T23:36:45.592Z,34.70
2018-02-14T23:39:24.715Z,31.92
2018-02-14T23:44:55.375Z,31.00
2018-02-14T23:47:22.915Z,32.80
2018-02-14T23:49:51.220Z,33.93
2018-02-14T23:52:18.784Z,32.33
2018-02-14T23:54:46.847Z,32.90
2018-02-14T23:57:26.408Z,33.65
